sensor_id;sensor_type;location;lat;lon;timestamp;pressure;altitude;pressure_sealevel;temperature
56286;BMP180;42191;47.562;9.686;2023-04-15T00:01:30;95888.00;;;9.80
56286;BMP180;42191;47.562;9.686;2023-04-15T00:03:59;95872.00;;;9.80
56286;BMP180;42191;47.562;9.686;2023-04-15T00:06:25;95878.00;;;9.80
56286;BMP180;42191;47.562;9.686;2023-04-15T00:08:51;95887.00;;;9.80
56286;BMP180;42191;47.562;9.686;2023-04-15T00:11:17;95880.00;;;9.70
56286;BMP180;42191;47.562;9.686;2023-04-15T00:13:45;95872.00;;;9.70
56286;BMP180;42191;47.562;9.686;2023-04-15T00:16:11;95880.00;;;9.70
56286;BMP180;42191;47.562;9.686;2023-04-15T00:18:37;95870.00;;;9.70
56286;BMP180;42191;47.562;9.686;2023-04-15T00:21:04;95877.00;;;9.60
56286;BMP180;42191;47.562;9.686;2023-04-15T00:23:30;95882.00;;;9.60
56286;BMP180;42191;47.562;9.686;2023-04-15T00:25:57;95877.00;;;9.60
56286;BMP180;42191;47.562;9.686;2023-04-15T00:28:23;95875.00;;;9.60
56286;BMP180;42191;47.562;9.686;2023-04-15T00:30:49;95871.00;;;9.60
56286;BMP180;42191;47.562;9.686;2023-04-15T00:33:16;95874.00;;;9.60
56286;BMP180;42191;47.562;9.686;2023-04-15T00:35:42;95868.00;;;9.60
56286;BMP180;42191;47.562;9.686;2023-04-15T00:38:09;95880.00;;;9.50
56286;BMP180;42191;47.562;9.686;2023-04-15T00:40:35;95870.00;;;9.50
56286;BMP180;42191;47.562;9.686;2023-04-15T00:43:01;95867.00;;;9.50
56286;BMP180;42191;47.562;9.686;2023-04-15T00:45:27;95876.00;;;9.50
56286;BMP180;42191;47.562;9.686;2023-04-15T00:47:54;95869.00;;;9.50
56286;BMP180;42191;47.562;9.686;2023-04-15T00:50:20;95866.00;;;9.50
56286;BMP180;42191;47.562;9.686;2023-04-15T00:52:47;95871.00;;;9.50
56286;BMP180;42191;47.562;9.686;2023-04-15T00:55:13;95868.00;;;9.50
56286;BMP180;42191;47.562;9.686;2023-04-15T00:57:40;95872.00;;;9.40
56286;BMP180;42191;47.562;9.686;2023-04-15T01:00:07;95875.00;;;9.40
56286;BMP180;42191;47.562;9.686;2023-04-15T01:02:34;95876.00;;;9.40
56286;BMP180;42191;47.562;9.686;2023-04-15T01:05:01;95883.00;;;9.40
56286;BMP180;42191;47.562;9.686;2023-04-15T01:07:29;95873.00;;;9.30
56286;BMP180;42191;47.562;9.686;2023-04-15T01:09:55;95873.00;;;9.30
56286;BMP180;42191;47.562;9.686;2023-04-15T01:12:22;95874.00;;;9.30
56286;BMP180;42191;47.562;9.686;2023-04-15T01:14:49;95864.00;;;9.30
56286;BMP180;42191;47.562;9.686;2023-04-15T01:17:16;95873.00;;;9.20
56286;BMP180;42191;47.562;9.686;2023-04-15T01:19:42;95871.00;;;9.20
56286;BMP180;42191;47.562;9.686;2023-04-15T01:22:08;95868.00;;;9.20
56286;BMP180;42191;47.562;9.686;2023-04-15T01:24:35;95860.00;;;9.20
56286;BMP180;42191;47.562;9.686;2023-04-15T01:27:01;95862.00;;;9.20
56286;BMP180;42191;47.562;9.686;2023-04-15T01:29:31;95871.00;;;9.10
56286;BMP180;42191;47.562;9.686;2023-04-15T01:31:57;95877.00;;;9.10
56286;BMP180;42191;47.562;9.686;2023-04-15T01:34:23;95870.00;;;9.10
56286;BMP180;42191;47.562;9.686;2023-04-15T01:36:49;95872.00;;;9.10
56286;BMP180;42191;47.562;9.686;2023-04-15T01:39:16;95882.00;;;9.00
56286;BMP180;42191;47.562;9.686;2023-04-15T01:41:42;95870.00;;;9.00
56286;BMP180;42191;47.562;9.686;2023-04-15T01:44:08;95874.00;;;9.00
56286;BMP180;42191;47.562;9.686;2023-04-15T01:46:35;95874.00;;;9.00
56286;BMP180;42191;47.562;9.686;2023-04-15T01:49:01;95878.00;;;8.90
56286;BMP180;42191;47.562;9.686;2023-04-15T01:51:27;95884.00;;;8.90
56286;BMP180;42191;47.562;9.686;2023-04-15T01:53:53;95883.00;;;8.90
56286;BMP180;42191;47.562;9.686;2023-04-15T01:56:21;95889.00;;;8.90
56286;BMP180;42191;47.562;9.686;2023-04-15T01:58:49;95876.00;;;8.90
56286;BMP180;42191;47.562;9.686;2023-04-15T02:01:15;95884.00;;;8.80
56286;BMP180;42191;47.562;9.686;2023-04-15T02:03:44;95882.00;;;8.80
56286;BMP180;42191;47.562;9.686;2023-04-15T02:06:10;95879.00;;;8.80
56286;BMP180;42191;47.562;9.686;2023-04-15T02:08:37;95875.00;;;8.80
56286;BMP180;42191;47.562;9.686;2023-04-15T02:11:03;95887.00;;;8.70
56286;BMP180;42191;47.562;9.686;2023-04-15T02:13:29;95876.00;;;8.70
56286;BMP180;42191;47.562;9.686;2023-04-15T02:15:55;95879.00;;;8.70
56286;BMP180;42191;47.562;9.686;2023-04-15T02:18:21;95887.00;;;8.70
56286;BMP180;42191;47.562;9.686;2023-04-15T02:20:49;95871.00;;;8.70
56286;BMP180;42191;47.562;9.686;2023-04-15T02:23:16;95889.00;;;8.60
56286;BMP180;42191;47.562;9.686;2023-04-15T02:25:42;95881.00;;;8.70
56286;BMP180;42191;47.562;9.686;2023-04-15T02:28:08;95887.00;;;8.60
56286;BMP180;42191;47.562;9.686;2023-04-15T02:30:34;95886.00;;;8.60
56286;BMP180;42191;47.562;9.686;2023-04-15T02:33:00;95887.00;;;8.60
56286;BMP180;42191;47.562;9.686;2023-04-15T02:35:27;95899.00;;;8.60
56286;BMP180;42191;47.562;9.686;2023-04-15T02:37:53;95895.00;;;8.50
56286;BMP180;42191;47.562;9.686;2023-04-15T02:40:19;95885.00;;;8.50
56286;BMP180;42191;47.562;9.686;2023-04-15T02:42:45;95899.00;;;8.50
56286;BMP180;42191;47.562;9.686;2023-04-15T02:45:11;95880.00;;;8.50
56286;BMP180;42191;47.562;9.686;2023-04-15T02:47:37;95890.00;;;8.50
56286;BMP180;42191;47.562;9.686;2023-04-15T02:50:10;95885.00;;;8.50
56286;BMP180;42191;47.562;9.686;2023-04-15T02:52:38;95881.00;;;8.50
56286;BMP180;42191;47.562;9.686;2023-04-15T02:55:05;95887.00;;;8.40
56286;BMP180;42191;47.562;9.686;2023-04-15T02:57:31;95888.00;;;8.40
56286;BMP180;42191;47.562;9.686;2023-04-15T02:59:58;95888.00;;;8.40
56286;BMP180;42191;47.562;9.686;2023-04-15T03:02:24;95879.00;;;8.40
56286;BMP180;42191;47.562;9.686;2023-04-15T03:04:50;95886.00;;;8.40
56286;BMP180;42191;47.562;9.686;2023-04-15T03:07:17;95877.00;;;8.40
56286;BMP180;42191;47.562;9.686;2023-04-15T03:09:44;95886.00;;;8.30
56286;BMP180;42191;47.562;9.686;2023-04-15T03:12:10;95890.00;;;8.40
56286;BMP180;42191;47.562;9.686;2023-04-15T03:14:36;95883.00;;;8.30
56286;BMP180;42191;47.562;9.686;2023-04-15T03:17:02;95886.00;;;8.30
56286;BMP180;42191;47.562;9.686;2023-04-15T03:19:28;95873.00;;;8.30
56286;BMP180;42191;47.562;9.686;2023-04-15T03:21:54;95889.00;;;8.20
56286;BMP180;42191;47.562;9.686;2023-04-15T03:24:20;95885.00;;;8.30
56286;BMP180;42191;47.562;9.686;2023-04-15T03:26:47;95881.00;;;8.20
56286;BMP180;42191;47.562;9.686;2023-04-15T03:29:13;95880.00;;;8.20
56286;BMP180;42191;47.562;9.686;2023-04-15T03:31:39;95879.00;;;8.20
56286;BMP180;42191;47.562;9.686;2023-04-15T03:34:05;95877.00;;;8.20
56286;BMP180;42191;47.562;9.686;2023-04-15T03:36:31;95882.00;;;8.20
56286;BMP180;42191;47.562;9.686;2023-04-15T03:39:00;95887.00;;;8.20
56286;BMP180;42191;47.562;9.686;2023-04-15T03:41:29;95879.00;;;8.20
56286;BMP180;42191;47.562;9.686;2023-04-15T03:43:55;95879.00;;;8.20
56286;BMP180;42191;47.562;9.686;2023-04-15T03:46:21;95885.00;;;8.20
56286;BMP180;42191;47.562;9.686;2023-04-15T03:48:48;95879.00;;;8.20
56286;BMP180;42191;47.562;9.686;2023-04-15T03:51:14;95879.00;;;8.10
56286;BMP180;42191;47.562;9.686;2023-04-15T03:53:40;95878.00;;;8.10
56286;BMP180;42191;47.562;9.686;2023-04-15T03:56:06;95888.00;;;8.10
56286;BMP180;42191;47.562;9.686;2023-04-15T03:58:32;95887.00;;;8.10
56286;BMP180;42191;47.562;9.686;2023-04-15T04:00:58;95887.00;;;8.10
56286;BMP180;42191;47.562;9.686;2023-04-15T04:03:24;95893.00;;;8.10
56286;BMP180;42191;47.562;9.686;2023-04-15T04:05:51;95893.00;;;8.10
56286;BMP180;42191;47.562;9.686;2023-04-15T04:08:17;95888.00;;;8.10
56286;BMP180;42191;47.562;9.686;2023-04-15T04:10:44;95894.00;;;8.00
56286;BMP180;42191;47.562;9.686;2023-04-15T04:13:10;95881.00;;;8.00
56286;BMP180;42191;47.562;9.686;2023-04-15T04:15:36;95889.00;;;8.00
56286;BMP180;42191;47.562;9.686;2023-04-15T04:18:02;95894.00;;;8.00
56286;BMP180;42191;47.562;9.686;2023-04-15T04:20:28;95895.00;;;8.00
56286;BMP180;42191;47.562;9.686;2023-04-15T04:22:57;95892.00;;;7.90
56286;BMP180;42191;47.562;9.686;2023-04-15T04:25:23;95898.00;;;7.90
56286;BMP180;42191;47.562;9.686;2023-04-15T04:27:49;95902.00;;;7.90
56286;BMP180;42191;47.562;9.686;2023-04-15T04:30:15;95901.00;;;7.90
56286;BMP180;42191;47.562;9.686;2023-04-15T04:32:41;95906.00;;;7.90
56286;BMP180;42191;47.562;9.686;2023-04-15T04:35:08;95896.00;;;7.90
56286;BMP180;42191;47.562;9.686;2023-04-15T04:37:34;95896.00;;;7.90
56286;BMP180;42191;47.562;9.686;2023-04-15T04:40:00;95901.00;;;7.90
56286;BMP180;42191;47.562;9.686;2023-04-15T04:42:26;95903.00;;;7.80
56286;BMP180;42191;47.562;9.686;2023-04-15T04:44:52;95896.00;;;7.80
56286;BMP180;42191;47.562;9.686;2023-04-15T04:47:18;95909.00;;;7.80
56286;BMP180;42191;47.562;9.686;2023-04-15T04:49:44;95910.00;;;7.80
56286;BMP180;42191;47.562;9.686;2023-04-15T04:52:10;95896.00;;;7.80
56286;BMP180;42191;47.562;9.686;2023-04-15T04:54:37;95904.00;;;7.80
56286;BMP180;42191;47.562;9.686;2023-04-15T04:57:03;95915.00;;;7.80
56286;BMP180;42191;47.562;9.686;2023-04-15T04:59:29;95919.00;;;7.80
56286;BMP180;42191;47.562;9.686;2023-04-15T05:01:55;95922.00;;;7.80
56286;BMP180;42191;47.562;9.686;2023-04-15T05:04:21;95922.00;;;7.80
56286;BMP180;42191;47.562;9.686;2023-04-15T05:06:47;95917.00;;;7.80
56286;BMP180;42191;47.562;9.686;2023-04-15T05:09:13;95922.00;;;7.80
56286;BMP180;42191;47.562;9.686;2023-04-15T05:11:39;95916.00;;;7.80
56286;BMP180;42191;47.562;9.686;2023-04-15T05:14:06;95920.00;;;7.80
56286;BMP180;42191;47.562;9.686;2023-04-15T05:16:32;95922.00;;;7.90
56286;BMP180;42191;47.562;9.686;2023-04-15T05:18:58;95926.00;;;7.90
56286;BMP180;42191;47.562;9.686;2023-04-15T05:21:24;95931.00;;;7.90
56286;BMP180;42191;47.562;9.686;2023-04-15T05:23:51;95935.00;;;7.90
56286;BMP180;42191;47.562;9.686;2023-04-15T05:26:17;95929.00;;;7.90
56286;BMP180;42191;47.562;9.686;2023-04-15T05:28:43;95933.00;;;7.90
56286;BMP180;42191;47.562;9.686;2023-04-15T05:31:09;95924.00;;;8.00
56286;BMP180;42191;47.562;9.686;2023-04-15T05:33:35;95915.00;;;8.00
56286;BMP180;42191;47.562;9.686;2023-04-15T05:36:01;95916.00;;;8.00
56286;BMP180;42191;47.562;9.686;2023-04-15T05:38:27;95926.00;;;8.10
56286;BMP180;42191;47.562;9.686;2023-04-15T05:40:53;95919.00;;;8.10
56286;BMP180;42191;47.562;9.686;2023-04-15T05:43:19;95921.00;;;8.10
56286;BMP180;42191;47.562;9.686;2023-04-15T05:45:46;95914.00;;;8.20
56286;BMP180;42191;47.562;9.686;2023-04-15T05:48:12;95909.00;;;8.30
56286;BMP180;42191;47.562;9.686;2023-04-15T05:50:40;95904.00;;;8.30
56286;BMP180;42191;47.562;9.686;2023-04-15T05:53:07;95908.00;;;8.40
56286;BMP180;42191;47.562;9.686;2023-04-15T05:55:33;95916.00;;;8.40
56286;BMP180;42191;47.562;9.686;2023-04-15T05:57:59;95906.00;;;8.50
56286;BMP180;42191;47.562;9.686;2023-04-15T06:00:25;95915.00;;;8.60
56286;BMP180;42191;47.562;9.686;2023-04-15T06:02:52;95908.00;;;8.60
56286;BMP180;42191;47.562;9.686;2023-04-15T06:05:18;95898.00;;;8.70
56286;BMP180;42191;47.562;9.686;2023-04-15T06:07:44;95916.00;;;8.80
56286;BMP180;42191;47.562;9.686;2023-04-15T06:10:11;95913.00;;;8.90
56286;BMP180;42191;47.562;9.686;2023-04-15T06:12:37;95901.00;;;8.90
56286;BMP180;42191;47.562;9.686;2023-04-15T06:15:03;95911.00;;;9.00
56286;BMP180;42191;47.562;9.686;2023-04-15T06:17:31;95896.00;;;9.10
56286;BMP180;42191;47.562;9.686;2023-04-15T06:19:57;95902.00;;;9.20
56286;BMP180;42191;47.562;9.686;2023-04-15T06:22:24;95910.00;;;9.30
56286;BMP180;42191;47.562;9.686;2023-04-15T06:24:51;95916.00;;;9.40
56286;BMP180;42191;47.562;9.686;2023-04-15T06:27:18;95910.00;;;9.60
56286;BMP180;42191;47.562;9.686;2023-04-15T06:29:44;95911.00;;;9.70
56286;BMP180;42191;47.562;9.686;2023-04-15T06:32:10;95916.00;;;9.80
56286;BMP180;42191;47.562;9.686;2023-04-15T06:34:37;95915.00;;;9.90
56286;BMP180;42191;47.562;9.686;2023-04-15T06:37:03;95925.00;;;10.10
56286;BMP180;42191;47.562;9.686;2023-04-15T06:39:29;95917.00;;;10.20
56286;BMP180;42191;47.562;9.686;2023-04-15T06:41:55;95914.00;;;10.30
56286;BMP180;42191;47.562;9.686;2023-04-15T06:44:21;95920.00;;;10.50
56286;BMP180;42191;47.562;9.686;2023-04-15T06:46:47;95912.00;;;10.60
56286;BMP180;42191;47.562;9.686;2023-04-15T06:49:13;95929.00;;;10.70
56286;BMP180;42191;47.562;9.686;2023-04-15T06:51:41;95921.00;;;10.80
56286;BMP180;42191;47.562;9.686;2023-04-15T06:54:07;95930.00;;;10.90
56286;BMP180;42191;47.562;9.686;2023-04-15T06:56:33;95927.00;;;11.00
56286;BMP180;42191;47.562;9.686;2023-04-15T06:58:59;95924.00;;;11.10
56286;BMP180;42191;47.562;9.686;2023-04-15T07:01:26;95929.00;;;11.20
56286;BMP180;42191;47.562;9.686;2023-04-15T07:03:52;95929.00;;;11.30
56286;BMP180;42191;47.562;9.686;2023-04-15T07:06:19;95920.00;;;11.30
56286;BMP180;42191;47.562;9.686;2023-04-15T07:08:46;95924.00;;;11.40
56286;BMP180;42191;47.562;9.686;2023-04-15T07:11:12;95926.00;;;11.40
56286;BMP180;42191;47.562;9.686;2023-04-15T07:13:39;95921.00;;;11.40
56286;BMP180;42191;47.562;9.686;2023-04-15T07:16:05;95932.00;;;11.50
56286;BMP180;42191;47.562;9.686;2023-04-15T07:18:31;95925.00;;;11.50
56286;BMP180;42191;47.562;9.686;2023-04-15T07:20:57;95921.00;;;11.50
56286;BMP180;42191;47.562;9.686;2023-04-15T07:23:24;95925.00;;;11.50
56286;BMP180;42191;47.562;9.686;2023-04-15T07:25:50;95920.00;;;11.60
56286;BMP180;42191;47.562;9.686;2023-04-15T07:28:17;95921.00;;;11.60
56286;BMP180;42191;47.562;9.686;2023-04-15T07:30:43;95920.00;;;11.70
56286;BMP180;42191;47.562;9.686;2023-04-15T07:33:09;95926.00;;;11.70
56286;BMP180;42191;47.562;9.686;2023-04-15T07:35:35;95932.00;;;11.80
56286;BMP180;42191;47.562;9.686;2023-04-15T07:38:01;95920.00;;;11.90
56286;BMP180;42191;47.562;9.686;2023-04-15T07:40:27;95925.00;;;12.00
56286;BMP180;42191;47.562;9.686;2023-04-15T07:42:57;95922.00;;;12.10
56286;BMP180;42191;47.562;9.686;2023-04-15T07:45:23;95919.00;;;12.30
56286;BMP180;42191;47.562;9.686;2023-04-15T07:47:49;95923.00;;;12.40
56286;BMP180;42191;47.562;9.686;2023-04-15T07:50:16;95922.00;;;12.50
56286;BMP180;42191;47.562;9.686;2023-04-15T07:52:43;95916.00;;;12.60
56286;BMP180;42191;47.562;9.686;2023-04-15T07:55:09;95921.00;;;12.70
56286;BMP180;42191;47.562;9.686;2023-04-15T07:57:36;95932.00;;;12.80
56286;BMP180;42191;47.562;9.686;2023-04-15T08:00:04;95920.00;;;13.00
56286;BMP180;42191;47.562;9.686;2023-04-15T08:02:30;95917.00;;;13.10
56286;BMP180;42191;47.562;9.686;2023-04-15T08:04:57;95916.00;;;13.20
56286;BMP180;42191;47.562;9.686;2023-04-15T08:07:23;95915.00;;;13.30
56286;BMP180;42191;47.562;9.686;2023-04-15T08:09:50;95918.00;;;13.40
56286;BMP180;42191;47.562;9.686;2023-04-15T08:12:16;95912.00;;;13.50
56286;BMP180;42191;47.562;9.686;2023-04-15T08:14:42;95910.00;;;13.60
56286;BMP180;42191;47.562;9.686;2023-04-15T08:17:08;95908.00;;;13.70
56286;BMP180;42191;47.562;9.686;2023-04-15T08:19:34;95908.00;;;13.80
56286;BMP180;42191;47.562;9.686;2023-04-15T08:22:00;95906.00;;;13.90
56286;BMP180;42191;47.562;9.686;2023-04-15T08:24:27;95911.00;;;14.00
56286;BMP180;42191;47.562;9.686;2023-04-15T08:26:53;95902.00;;;14.00
56286;BMP180;42191;47.562;9.686;2023-04-15T08:29:19;95906.00;;;14.10
56286;BMP180;42191;47.562;9.686;2023-04-15T08:31:45;95905.00;;;14.10
56286;BMP180;42191;47.562;9.686;2023-04-15T08:34:12;95910.00;;;14.20
56286;BMP180;42191;47.562;9.686;2023-04-15T08:36:38;95908.00;;;14.30
56286;BMP180;42191;47.562;9.686;2023-04-15T08:39:04;95906.00;;;14.30
56286;BMP180;42191;47.562;9.686;2023-04-15T08:41:59;95912.00;;;14.40
56286;BMP180;42191;47.562;9.686;2023-04-15T08:44:28;95907.00;;;14.50
56286;BMP180;42191;47.562;9.686;2023-04-15T08:46:56;95915.00;;;14.50
56286;BMP180;42191;47.562;9.686;2023-04-15T08:49:26;95912.00;;;14.60
56286;BMP180;42191;47.562;9.686;2023-04-15T08:51:55;95917.00;;;14.70
56286;BMP180;42191;47.562;9.686;2023-04-15T08:54:22;95911.00;;;14.80
56286;BMP180;42191;47.562;9.686;2023-04-15T08:56:49;95903.00;;;14.80
56286;BMP180;42191;47.562;9.686;2023-04-15T08:59:16;95912.00;;;14.90
56286;BMP180;42191;47.562;9.686;2023-04-15T09:01:43;95908.00;;;15.00
56286;BMP180;42191;47.562;9.686;2023-04-15T09:04:10;95907.00;;;15.10
56286;BMP180;42191;47.562;9.686;2023-04-15T09:06:39;95912.00;;;15.30
56286;BMP180;42191;47.562;9.686;2023-04-15T09:09:05;95916.00;;;15.40
56286;BMP180;42191;47.562;9.686;2023-04-15T09:11:32;95910.00;;;15.60
56286;BMP180;42191;47.562;9.686;2023-04-15T09:13:58;95911.00;;;15.70
56286;BMP180;42191;47.562;9.686;2023-04-15T09:16:24;95921.00;;;15.90
56286;BMP180;42191;47.562;9.686;2023-04-15T09:18:51;95916.00;;;16.00
56286;BMP180;42191;47.562;9.686;2023-04-15T09:21:17;95922.00;;;16.20
56286;BMP180;42191;47.562;9.686;2023-04-15T09:23:59;95916.00;;;16.30
56286;BMP180;42191;47.562;9.686;2023-04-15T09:26:33;95919.00;;;16.50
56286;BMP180;42191;47.562;9.686;2023-04-15T09:29:07;95915.00;;;16.60
56286;BMP180;42191;47.562;9.686;2023-04-15T09:31:34;95910.00;;;16.70
56286;BMP180;42191;47.562;9.686;2023-04-15T09:34:01;95916.00;;;16.80
56286;BMP180;42191;47.562;9.686;2023-04-15T09:36:28;95905.00;;;16.90
56286;BMP180;42191;47.562;9.686;2023-04-15T09:38:59;95921.00;;;17.10
56286;BMP180;42191;47.562;9.686;2023-04-15T09:41:26;95929.00;;;17.20
56286;BMP180;42191;47.562;9.686;2023-04-15T09:43:52;95919.00;;;17.30
56286;BMP180;42191;47.562;9.686;2023-04-15T09:46:18;95919.00;;;17.50
56286;BMP180;42191;47.562;9.686;2023-04-15T09:48:45;95929.00;;;17.60
56286;BMP180;42191;47.562;9.686;2023-04-15T09:51:11;95928.00;;;17.70
56286;BMP180;42191;47.562;9.686;2023-04-15T09:53:37;95922.00;;;17.80
56286;BMP180;42191;47.562;9.686;2023-04-15T09:56:03;95913.00;;;17.90
56286;BMP180;42191;47.562;9.686;2023-04-15T09:58:34;95912.00;;;18.00
56286;BMP180;42191;47.562;9.686;2023-04-15T10:01:03;95921.00;;;18.00
56286;BMP180;42191;47.562;9.686;2023-04-15T10:03:32;95925.00;;;18.10
56286;BMP180;42191;47.562;9.686;2023-04-15T10:05:59;95910.00;;;18.20
56286;BMP180;42191;47.562;9.686;2023-04-15T10:08:30;95915.00;;;18.40
56286;BMP180;42191;47.562;9.686;2023-04-15T10:10:58;95910.00;;;18.60
56286;BMP180;42191;47.562;9.686;2023-04-15T10:13:26;95916.00;;;18.70
56286;BMP180;42191;47.562;9.686;2023-04-15T10:16:06;95915.00;;;18.80
56286;BMP180;42191;47.562;9.686;2023-04-15T10:18:35;95922.00;;;18.70
56286;BMP180;42191;47.562;9.686;2023-04-15T10:21:03;95916.00;;;18.70
56286;BMP180;42191;47.562;9.686;2023-04-15T10:23:31;95919.00;;;18.70
56286;BMP180;42191;47.562;9.686;2023-04-15T10:25:58;95922.00;;;18.70
56286;BMP180;42191;47.562;9.686;2023-04-15T10:28:24;95918.00;;;18.80
56286;BMP180;42191;47.562;9.686;2023-04-15T10:30:51;95920.00;;;18.80
56286;BMP180;42191;47.562;9.686;2023-04-15T10:33:21;95919.00;;;18.80
56286;BMP180;42191;47.562;9.686;2023-04-15T10:35:49;95923.00;;;18.90
56286;BMP180;42191;47.562;9.686;2023-04-15T10:38:42;95923.00;;;19.00
56286;BMP180;42191;47.562;9.686;2023-04-15T10:41:22;95926.00;;;19.00
56286;BMP180;42191;47.562;9.686;2023-04-15T10:44:02;95933.00;;;19.10
56286;BMP180;42191;47.562;9.686;2023-04-15T10:49:11;95941.00;;;19.20
56286;BMP180;42191;47.562;9.686;2023-04-15T10:51:45;95940.00;;;19.30
56286;BMP180;42191;47.562;9.686;2023-04-15T10:54:37;95944.00;;;19.40
56286;BMP180;42191;47.562;9.686;2023-04-15T10:59:38;95936.00;;;19.60
56286;BMP180;42191;47.562;9.686;2023-04-15T11:02:07;95942.00;;;19.60
56286;BMP180;42191;47.562;9.686;2023-04-15T11:04:53;95945.00;;;19.80
56286;BMP180;42191;47.562;9.686;2023-04-15T11:12:42;95941.00;;;19.90
56286;BMP180;42191;47.562;9.686;2023-04-15T11:18:16;95942.00;;;19.80
56286;BMP180;42191;47.562;9.686;2023-04-15T11:20:51;95956.00;;;19.70
56286;BMP180;42191;47.562;9.686;2023-04-15T11:23:26;95960.00;;;19.60
56286;BMP180;42191;47.562;9.686;2023-04-15T11:25:55;95960.00;;;19.60
56286;BMP180;42191;47.562;9.686;2023-04-15T11:28:25;95961.00;;;19.50
56286;BMP180;42191;47.562;9.686;2023-04-15T11:30:52;95960.00;;;19.40
56286;BMP180;42191;47.562;9.686;2023-04-15T11:33:20;95970.00;;;19.40
56286;BMP180;42191;47.562;9.686;2023-04-15T11:35:47;95964.00;;;19.40
56286;BMP180;42191;47.562;9.686;2023-04-15T11:38:14;95966.00;;;19.40
56286;BMP180;42191;47.562;9.686;2023-04-15T11:40:41;95964.00;;;19.40
56286;BMP180;42191;47.562;9.686;2023-04-15T11:43:09;95976.00;;;19.50
56286;BMP180;42191;47.562;9.686;2023-04-15T11:45:36;95973.00;;;19.50
56286;BMP180;42191;47.562;9.686;2023-04-15T11:48:10;95970.00;;;19.50
56286;BMP180;42191;47.562;9.686;2023-04-15T11:50:37;95974.00;;;19.50
56286;BMP180;42191;47.562;9.686;2023-04-15T11:53:06;95978.00;;;19.60
56286;BMP180;42191;47.562;9.686;2023-04-15T11:55:50;95978.00;;;19.60
56286;BMP180;42191;47.562;9.686;2023-04-15T11:58:19;95988.00;;;19.70
56286;BMP180;42191;47.562;9.686;2023-04-15T12:00:54;95977.00;;;19.70
56286;BMP180;42191;47.562;9.686;2023-04-15T12:03:24;95982.00;;;19.90
56286;BMP180;42191;47.562;9.686;2023-04-15T12:16:29;96003.00;;;20.20
56286;BMP180;42191;47.562;9.686;2023-04-15T12:18:57;96001.00;;;20.20
56286;BMP180;42191;47.562;9.686;2023-04-15T12:21:32;96007.00;;;20.10
56286;BMP180;42191;47.562;9.686;2023-04-15T12:24:02;96004.00;;;20.10
56286;BMP180;42191;47.562;9.686;2023-04-15T12:26:51;96011.00;;;20.10
56286;BMP180;42191;47.562;9.686;2023-04-15T12:29:18;96010.00;;;20.10
56286;BMP180;42191;47.562;9.686;2023-04-15T12:31:49;96013.00;;;20.20
56286;BMP180;42191;47.562;9.686;2023-04-15T12:34:16;96012.00;;;20.20
56286;BMP180;42191;47.562;9.686;2023-04-15T12:36:43;96014.00;;;20.20
56286;BMP180;42191;47.562;9.686;2023-04-15T12:39:09;96016.00;;;20.10
56286;BMP180;42191;47.562;9.686;2023-04-15T12:41:36;96019.00;;;20.00
56286;BMP180;42191;47.562;9.686;2023-04-15T12:44:02;96021.00;;;19.90
56286;BMP180;42191;47.562;9.686;2023-04-15T12:46:28;96026.00;;;19.80
56286;BMP180;42191;47.562;9.686;2023-04-15T12:48:55;96030.00;;;19.80
56286;BMP180;42191;47.562;9.686;2023-04-15T12:51:21;96038.00;;;19.80
56286;BMP180;42191;47.562;9.686;2023-04-15T12:53:47;96038.00;;;19.80
56286;BMP180;42191;47.562;9.686;2023-04-15T12:56:14;96037.00;;;19.70
56286;BMP180;42191;47.562;9.686;2023-04-15T12:58:42;96039.00;;;19.60
56286;BMP180;42191;47.562;9.686;2023-04-15T13:01:08;96057.00;;;19.60
56286;BMP180;42191;47.562;9.686;2023-04-15T13:03:35;96051.00;;;19.60
56286;BMP180;42191;47.562;9.686;2023-04-15T13:06:01;96051.00;;;19.60
56286;BMP180;42191;47.562;9.686;2023-04-15T13:08:29;96049.00;;;19.50
56286;BMP180;42191;47.562;9.686;2023-04-15T13:10:56;96050.00;;;19.60
56286;BMP180;42191;47.562;9.686;2023-04-15T13:13:22;96044.00;;;19.70
56286;BMP180;42191;47.562;9.686;2023-04-15T13:15:48;96056.00;;;19.80
56286;BMP180;42191;47.562;9.686;2023-04-15T13:18:14;96058.00;;;19.80
56286;BMP180;42191;47.562;9.686;2023-04-15T13:20:41;96057.00;;;19.90
56286;BMP180;42191;47.562;9.686;2023-04-15T13:23:07;96055.00;;;20.00
56286;BMP180;42191;47.562;9.686;2023-04-15T13:25:34;96070.00;;;20.00
56286;BMP180;42191;47.562;9.686;2023-04-15T13:28:00;96070.00;;;20.10
56286;BMP180;42191;47.562;9.686;2023-04-15T13:30:26;96077.00;;;20.10
56286;BMP180;42191;47.562;9.686;2023-04-15T13:32:53;96072.00;;;20.10
56286;BMP180;42191;47.562;9.686;2023-04-15T13:35:19;96084.00;;;20.10
56286;BMP180;42191;47.562;9.686;2023-04-15T13:37:46;96078.00;;;20.10
56286;BMP180;42191;47.562;9.686;2023-04-15T13:40:13;96082.00;;;20.00
56286;BMP180;42191;47.562;9.686;2023-04-15T13:42:39;96084.00;;;20.00
56286;BMP180;42191;47.562;9.686;2023-04-15T13:45:06;96083.00;;;19.90
56286;BMP180;42191;47.562;9.686;2023-04-15T13:47:32;96085.00;;;19.80
56286;BMP180;42191;47.562;9.686;2023-04-15T13:49:58;96079.00;;;19.80
56286;BMP180;42191;47.562;9.686;2023-04-15T13:52:24;96086.00;;;19.80
56286;BMP180;42191;47.562;9.686;2023-04-15T13:54:50;96091.00;;;19.80
56286;BMP180;42191;47.562;9.686;2023-04-15T13:57:17;96091.00;;;19.90
56286;BMP180;42191;47.562;9.686;2023-04-15T13:59:43;96099.00;;;19.90
56286;BMP180;42191;47.562;9.686;2023-04-15T14:02:09;96106.00;;;19.90
56286;BMP180;42191;47.562;9.686;2023-04-15T14:04:35;96106.00;;;19.90
56286;BMP180;42191;47.562;9.686;2023-04-15T14:07:02;96106.00;;;19.90
56286;BMP180;42191;47.562;9.686;2023-04-15T14:09:28;96103.00;;;19.90
56286;BMP180;42191;47.562;9.686;2023-04-15T14:11:54;96103.00;;;19.80
56286;BMP180;42191;47.562;9.686;2023-04-15T14:14:21;96102.00;;;19.70
56286;BMP180;42191;47.562;9.686;2023-04-15T14:16:50;96110.00;;;19.60
56286;BMP180;42191;47.562;9.686;2023-04-15T14:19:16;96122.00;;;19.60
56286;BMP180;42191;47.562;9.686;2023-04-15T14:21:42;96116.00;;;19.50
56286;BMP180;42191;47.562;9.686;2023-04-15T14:24:08;96125.00;;;19.40
56286;BMP180;42191;47.562;9.686;2023-04-15T14:26:34;96124.00;;;19.20
56286;BMP180;42191;47.562;9.686;2023-04-15T14:29:00;96123.00;;;19.10
56286;BMP180;42191;47.562;9.686;2023-04-15T14:31:27;96112.00;;;19.00
56286;BMP180;42191;47.562;9.686;2023-04-15T14:33:53;96113.00;;;18.90
56286;BMP180;42191;47.562;9.686;2023-04-15T14:36:19;96123.00;;;18.80
56286;BMP180;42191;47.562;9.686;2023-04-15T14:38:45;96133.00;;;18.70